sensor_id;sensor_type;location;lat;lon;timestamp;temperature;humidity
8633;DHT22;4354;49.832;10.746;2022-10-16T00:00:57;14.80;99.90
8633;DHT22;4354;49.832;10.746;2022-10-16T00:03:24;14.80;99.90
8633;DHT22;4354;49.832;10.746;2022-10-16T00:05:59;14.80;99.90
8633;DHT22;4354;49.832;10.746;2022-10-16T00:08:27;14.50;99.90
8633;DHT22;4354;49.832;10.746;2022-10-16T00:10:59;14.80;99.90
8633;DHT22;4354;49.832;10.746;2022-10-16T00:13:26;14.40;99.90
8633;DHT22;4354;49.832;10.746;2022-10-16T00:15:55;14.50;99.90
8633;DHT22;4354;49.832;10.746;2022-10-16T00:18:23;14.60;99.90
8633;DHT22;4354;49.832;10.746;2022-10-16T00:20:50;14.60;99.90
8633;DHT22;4354;49.832;10.746;2022-10-16T00:23:17;14.60;99.90
8633;DHT22;4354;49.832;10.746;2022-10-16T00:25:44;14.50;99.90
8633;DHT22;4354;49.832;10.746;2022-10-16T00:28:11;14.40;99.90
8633;DHT22;4354;49.832;10.746;2022-10-16T00:30:39;14.50;99.90
8633;DHT22;4354;49.832;10.746;2022-10-16T00:33:06;14.40;99.90
8633;DHT22;4354;49.832;10.746;2022-10-16T00:35:32;14.20;99.90
8633;DHT22;4354;49.832;10.746;2022-10-16T00:37:59;14.40;99.90
8633;DHT22;4354;49.832;10.746;2022-10-16T00:40:26;14.40;99.90
8633;DHT22;4354;49.832;10.746;2022-10-16T00:42:54;14.40;99.90
8633;DHT22;4354;49.832;10.746;2022-10-16T00:45:21;14.20;99.90
8633;DHT22;4354;49.832;10.746;2022-10-16T00:47:49;14.30;99.90
8633;DHT22;4354;49.832;10.746;2022-10-16T00:50:28;14.00;99.90
8633;DHT22;4354;49.832;10.746;2022-10-16T00:52:57;14.20;99.90
8633;DHT22;4354;49.832;10.746;2022-10-16T00:55:25;14.20;99.90
8633;DHT22;4354;49.832;10.746;2022-10-16T00:57:52;14.10;99.90
8633;DHT22;4354;49.832;10.746;2022-10-16T01:00:22;14.10;99.90
8633;DHT22;4354;49.832;10.746;2022-10-16T01:02:54;14.10;99.90
8633;DHT22;4354;49.832;10.746;2022-10-16T01:05:23;14.10;99.90
8633;DHT22;4354;49.832;10.746;2022-10-16T01:07:56;14.10;99.90
8633;DHT22;4354;49.832;10.746;2022-10-16T01:10:52;14.10;99.90
8633;DHT22;4354;49.832;10.746;2022-10-16T01:13:35;14.10;99.90
8633;DHT22;4354;49.832;10.746;2022-10-16T01:16:24;14.10;99.90
8633;DHT22;4354;49.832;10.746;2022-10-16T01:21:31;14.20;99.90
8633;DHT22;4354;49.832;10.746;2022-10-16T01:32:36;14.10;99.90
8633;DHT22;4354;49.832;10.746;2022-10-16T01:35:18;14.10;99.90
8633;DHT22;4354;49.832;10.746;2022-10-16T01:38:05;14.10;99.90
8633;DHT22;4354;49.832;10.746;2022-10-16T01:40:34;14.00;99.90
8633;DHT22;4354;49.832;10.746;2022-10-16T01:43:14;14.00;99.90
8633;DHT22;4354;49.832;10.746;2022-10-16T01:45:44;14.00;99.90
8633;DHT22;4354;49.832;10.746;2022-10-16T01:48:19;14.00;99.90
8633;DHT22;4354;49.832;10.746;2022-10-16T01:51:01;14.10;99.90
8633;DHT22;4354;49.832;10.746;2022-10-16T01:53:31;14.10;99.90
8633;DHT22;4354;49.832;10.746;2022-10-16T01:55:58;14.10;99.90
8633;DHT22;4354;49.832;10.746;2022-10-16T01:58:27;14.20;99.90
8633;DHT22;4354;49.832;10.746;2022-10-16T02:00:57;14.20;99.90
8633;DHT22;4354;49.832;10.746;2022-10-16T02:03:24;14.20;99.90
8633;DHT22;4354;49.832;10.746;2022-10-16T02:05:53;14.10;99.90
8633;DHT22;4354;49.832;10.746;2022-10-16T02:08:23;14.30;99.90
8633;DHT22;4354;49.832;10.746;2022-10-16T02:10:50;14.30;99.90
8633;DHT22;4354;49.832;10.746;2022-10-16T02:13:31;14.60;99.90
8633;DHT22;4354;49.832;10.746;2022-10-16T02:15:59;14.30;99.90
8633;DHT22;4354;49.832;10.746;2022-10-16T02:18:26;14.50;99.90
8633;DHT22;4354;49.832;10.746;2022-10-16T02:23:48;13.40;99.90
8633;DHT22;4354;49.832;10.746;2022-10-16T02:26:21;13.70;99.90
8633;DHT22;4354;49.832;10.746;2022-10-16T02:28:54;13.90;99.90
8633;DHT22;4354;49.832;10.746;2022-10-16T02:31:26;13.70;99.90
8633;DHT22;4354;49.832;10.746;2022-10-16T02:33:58;13.60;99.90
8633;DHT22;4354;49.832;10.746;2022-10-16T02:36:26;14.30;99.90
8633;DHT22;4354;49.832;10.746;2022-10-16T02:38:53;14.20;99.90
8633;DHT22;4354;49.832;10.746;2022-10-16T02:41:22;14.00;99.90
8633;DHT22;4354;49.832;10.746;2022-10-16T02:43:49;14.30;99.90
8633;DHT22;4354;49.832;10.746;2022-10-16T02:46:17;13.40;99.90
8633;DHT22;4354;49.832;10.746;2022-10-16T02:48:44;14.30;99.90
8633;DHT22;4354;49.832;10.746;2022-10-16T02:51:11;14.60;99.90
8633;DHT22;4354;49.832;10.746;2022-10-16T02:53:38;14.30;99.90
8633;DHT22;4354;49.832;10.746;2022-10-16T02:56:04;14.40;99.90
8633;DHT22;4354;49.832;10.746;2022-10-16T02:58:31;14.40;99.90
8633;DHT22;4354;49.832;10.746;2022-10-16T03:00:58;15.20;99.90
8633;DHT22;4354;49.832;10.746;2022-10-16T03:03:25;15.60;99.90
8633;DHT22;4354;49.832;10.746;2022-10-16T03:05:51;14.80;99.90
8633;DHT22;4354;49.832;10.746;2022-10-16T03:08:18;13.80;99.90
8633;DHT22;4354;49.832;10.746;2022-10-16T03:10:50;13.60;99.90
8633;DHT22;4354;49.832;10.746;2022-10-16T03:13:17;13.70;99.90
8633;DHT22;4354;49.832;10.746;2022-10-16T03:15:44;13.80;99.90
8633;DHT22;4354;49.832;10.746;2022-10-16T03:18:10;14.90;99.90
8633;DHT22;4354;49.832;10.746;2022-10-16T03:20:37;14.40;99.90
8633;DHT22;4354;49.832;10.746;2022-10-16T03:23:04;15.40;99.90
8633;DHT22;4354;49.832;10.746;2022-10-16T03:25:30;13.60;99.90
8633;DHT22;4354;49.832;10.746;2022-10-16T03:27:57;14.40;99.90
8633;DHT22;4354;49.832;10.746;2022-10-16T03:30:24;13.70;99.90
8633;DHT22;4354;49.832;10.746;2022-10-16T03:32:50;15.00;99.90
8633;DHT22;4354;49.832;10.746;2022-10-16T03:35:21;15.30;99.90
8633;DHT22;4354;49.832;10.746;2022-10-16T03:37:48;14.90;99.90
8633;DHT22;4354;49.832;10.746;2022-10-16T03:40:15;14.60;99.90
8633;DHT22;4354;49.832;10.746;2022-10-16T03:42:43;14.30;99.90
8633;DHT22;4354;49.832;10.746;2022-10-16T03:45:11;15.20;99.90
8633;DHT22;4354;49.832;10.746;2022-10-16T03:47:38;13.70;99.90
8633;DHT22;4354;49.832;10.746;2022-10-16T03:50:05;14.20;99.90
8633;DHT22;4354;49.832;10.746;2022-10-16T03:52:32;14.30;99.90
8633;DHT22;4354;49.832;10.746;2022-10-16T03:54:59;14.50;99.90
8633;DHT22;4354;49.832;10.746;2022-10-16T03:57:26;14.20;99.90
8633;DHT22;4354;49.832;10.746;2022-10-16T03:59:53;13.50;99.90
8633;DHT22;4354;49.832;10.746;2022-10-16T04:02:19;15.00;99.90
8633;DHT22;4354;49.832;10.746;2022-10-16T04:04:46;14.80;99.90
8633;DHT22;4354;49.832;10.746;2022-10-16T04:07:13;14.30;99.90
8633;DHT22;4354;49.832;10.746;2022-10-16T04:09:40;14.30;99.90
8633;DHT22;4354;49.832;10.746;2022-10-16T04:12:06;14.30;99.90
8633;DHT22;4354;49.832;10.746;2022-10-16T04:14:33;14.30;99.90
8633;DHT22;4354;49.832;10.746;2022-10-16T04:17:00;14.30;99.90
8633;DHT22;4354;49.832;10.746;2022-10-16T04:19:27;14.90;99.90
8633;DHT22;4354;49.832;10.746;2022-10-16T04:21:53;15.00;99.90
8633;DHT22;4354;49.832;10.746;2022-10-16T04:24:20;15.00;99.90
8633;DHT22;4354;49.832;10.746;2022-10-16T04:26:47;14.80;99.90
8633;DHT22;4354;49.832;10.746;2022-10-16T04:29:13;13.50;99.90
8633;DHT22;4354;49.832;10.746;2022-10-16T04:31:40;14.80;99.90
8633;DHT22;4354;49.832;10.746;2022-10-16T04:34:07;13.40;99.90
8633;DHT22;4354;49.832;10.746;2022-10-16T04:36:33;14.60;99.90
8633;DHT22;4354;49.832;10.746;2022-10-16T04:39:00;15.20;99.90
8633;DHT22;4354;49.832;10.746;2022-10-16T04:41:27;14.60;99.90
8633;DHT22;4354;49.832;10.746;2022-10-16T04:43:54;14.20;99.90
8633;DHT22;4354;49.832;10.746;2022-10-16T04:46:20;14.20;99.90
8633;DHT22;4354;49.832;10.746;2022-10-16T04:48:47;14.80;99.90
8633;DHT22;4354;49.832;10.746;2022-10-16T04:51:14;14.70;99.90
8633;DHT22;4354;49.832;10.746;2022-10-16T04:53:40;14.80;99.90
8633;DHT22;4354;49.832;10.746;2022-10-16T04:56:07;14.90;99.90
8633;DHT22;4354;49.832;10.746;2022-10-16T04:58:34;13.10;99.90
8633;DHT22;4354;49.832;10.746;2022-10-16T05:01:00;13.40;99.90
8633;DHT22;4354;49.832;10.746;2022-10-16T05:03:27;14.10;99.90
8633;DHT22;4354;49.832;10.746;2022-10-16T05:05:54;15.50;99.90
8633;DHT22;4354;49.832;10.746;2022-10-16T05:08:21;15.80;99.90
8633;DHT22;4354;49.832;10.746;2022-10-16T05:10:48;13.90;99.90
8633;DHT22;4354;49.832;10.746;2022-10-16T05:13:14;15.00;99.90
8633;DHT22;4354;49.832;10.746;2022-10-16T05:15:41;13.30;99.90
8633;DHT22;4354;49.832;10.746;2022-10-16T05:18:08;13.80;99.90
8633;DHT22;4354;49.832;10.746;2022-10-16T05:20:35;13.30;99.90
8633;DHT22;4354;49.832;10.746;2022-10-16T05:23:02;13.30;99.90
8633;DHT22;4354;49.832;10.746;2022-10-16T05:25:29;13.80;99.90
8633;DHT22;4354;49.832;10.746;2022-10-16T05:27:55;15.20;99.90
8633;DHT22;4354;49.832;10.746;2022-10-16T05:30:22;13.20;99.90
8633;DHT22;4354;49.832;10.746;2022-10-16T05:32:50;13.20;99.90
8633;DHT22;4354;49.832;10.746;2022-10-16T05:35:17;13.90;99.90
8633;DHT22;4354;49.832;10.746;2022-10-16T05:37:45;13.70;99.90
8633;DHT22;4354;49.832;10.746;2022-10-16T05:40:11;14.00;99.90
8633;DHT22;4354;49.832;10.746;2022-10-16T05:42:40;13.30;99.90
8633;DHT22;4354;49.832;10.746;2022-10-16T05:45:09;14.00;99.90
8633;DHT22;4354;49.832;10.746;2022-10-16T05:47:36;14.00;99.90
8633;DHT22;4354;49.832;10.746;2022-10-16T05:50:03;14.60;99.90
8633;DHT22;4354;49.832;10.746;2022-10-16T05:52:30;14.00;99.90
8633;DHT22;4354;49.832;10.746;2022-10-16T05:54:57;13.60;99.90
8633;DHT22;4354;49.832;10.746;2022-10-16T05:57:24;15.50;99.90
8633;DHT22;4354;49.832;10.746;2022-10-16T05:59:51;13.10;99.90
8633;DHT22;4354;49.832;10.746;2022-10-16T06:02:18;13.30;99.90
8633;DHT22;4354;49.832;10.746;2022-10-16T06:04:44;14.20;99.90
8633;DHT22;4354;49.832;10.746;2022-10-16T06:07:11;13.80;99.90
8633;DHT22;4354;49.832;10.746;2022-10-16T06:09:38;14.10;99.90
8633;DHT22;4354;49.832;10.746;2022-10-16T06:12:05;15.10;99.90
8633;DHT22;4354;49.832;10.746;2022-10-16T06:14:32;14.30;99.90
8633;DHT22;4354;49.832;10.746;2022-10-16T06:16:58;13.50;99.90
8633;DHT22;4354;49.832;10.746;2022-10-16T06:19:25;14.30;99.90
8633;DHT22;4354;49.832;10.746;2022-10-16T06:21:52;15.30;99.90
8633;DHT22;4354;49.832;10.746;2022-10-16T06:24:18;13.50;99.90
8633;DHT22;4354;49.832;10.746;2022-10-16T06:26:45;14.20;99.90
8633;DHT22;4354;49.832;10.746;2022-10-16T06:29:12;15.20;99.90
8633;DHT22;4354;49.832;10.746;2022-10-16T06:31:38;14.40;99.90
8633;DHT22;4354;49.832;10.746;2022-10-16T06:34:05;15.60;99.90
8633;DHT22;4354;49.832;10.746;2022-10-16T06:36:35;13.90;99.90
8633;DHT22;4354;49.832;10.746;2022-10-16T06:39:03;14.30;99.90
8633;DHT22;4354;49.832;10.746;2022-10-16T06:41:30;14.50;99.90
8633;DHT22;4354;49.832;10.746;2022-10-16T06:43:56;14.50;99.90
8633;DHT22;4354;49.832;10.746;2022-10-16T06:46:24;14.50;99.90
8633;DHT22;4354;49.832;10.746;2022-10-16T06:48:53;14.10;99.90
8633;DHT22;4354;49.832;10.746;2022-10-16T06:51:22;15.40;99.90
8633;DHT22;4354;49.832;10.746;2022-10-16T06:53:52;14.00;99.90
8633;DHT22;4354;49.832;10.746;2022-10-16T06:56:34;14.90;99.90
8633;DHT22;4354;49.832;10.746;2022-10-16T06:59:02;14.80;99.90
8633;DHT22;4354;49.832;10.746;2022-10-16T07:01:28;14.90;99.90
8633;DHT22;4354;49.832;10.746;2022-10-16T07:03:55;14.90;99.90
8633;DHT22;4354;49.832;10.746;2022-10-16T07:06:24;16.00;99.90
8633;DHT22;4354;49.832;10.746;2022-10-16T07:08:52;15.10;99.90
8633;DHT22;4354;49.832;10.746;2022-10-16T07:11:21;15.80;99.90
8633;DHT22;4354;49.832;10.746;2022-10-16T07:13:49;14.60;99.90
8633;DHT22;4354;49.832;10.746;2022-10-16T07:16:31;16.00;99.90
8633;DHT22;4354;49.832;10.746;2022-10-16T07:19:00;15.80;99.90
8633;DHT22;4354;49.832;10.746;2022-10-16T07:21:33;14.90;99.90
8633;DHT22;4354;49.832;10.746;2022-10-16T07:24:05;15.00;99.90
8633;DHT22;4354;49.832;10.746;2022-10-16T07:26:34;15.30;99.90
8633;DHT22;4354;49.832;10.746;2022-10-16T07:29:01;15.30;99.90
8633;DHT22;4354;49.832;10.746;2022-10-16T07:31:28;15.00;99.90
8633;DHT22;4354;49.832;10.746;2022-10-16T07:33:55;15.50;99.90
8633;DHT22;4354;49.832;10.746;2022-10-16T07:36:24;16.40;99.90
8633;DHT22;4354;49.832;10.746;2022-10-16T07:38:50;15.30;99.90
8633;DHT22;4354;49.832;10.746;2022-10-16T07:41:22;15.60;99.90
8633;DHT22;4354;49.832;10.746;2022-10-16T07:43:51;15.60;99.90
8633;DHT22;4354;49.832;10.746;2022-10-16T07:46:19;15.20;99.90
8633;DHT22;4354;49.832;10.746;2022-10-16T07:48:47;16.70;99.90
8633;DHT22;4354;49.832;10.746;2022-10-16T07:51:17;16.00;99.90
8633;DHT22;4354;49.832;10.746;2022-10-16T07:53:44;16.20;99.90
8633;DHT22;4354;49.832;10.746;2022-10-16T07:56:11;16.60;99.90
8633;DHT22;4354;49.832;10.746;2022-10-16T07:58:38;15.70;99.90
8633;DHT22;4354;49.832;10.746;2022-10-16T08:01:11;17.00;99.90
8633;DHT22;4354;49.832;10.746;2022-10-16T08:03:45;16.30;99.90
8633;DHT22;4354;49.832;10.746;2022-10-16T08:06:12;16.40;99.90
8633;DHT22;4354;49.832;10.746;2022-10-16T08:08:39;16.60;99.90
8633;DHT22;4354;49.832;10.746;2022-10-16T08:11:06;16.10;99.90
8633;DHT22;4354;49.832;10.746;2022-10-16T08:13:33;16.90;99.90
8633;DHT22;4354;49.832;10.746;2022-10-16T08:16:00;17.10;99.90
8633;DHT22;4354;49.832;10.746;2022-10-16T08:18:27;17.20;99.90
8633;DHT22;4354;49.832;10.746;2022-10-16T08:20:58;17.20;99.90
8633;DHT22;4354;49.832;10.746;2022-10-16T08:23:27;17.70;99.90
8633;DHT22;4354;49.832;10.746;2022-10-16T08:25:54;17.70;99.90
8633;DHT22;4354;49.832;10.746;2022-10-16T08:28:22;17.70;99.90
8633;DHT22;4354;49.832;10.746;2022-10-16T08:30:49;17.50;99.90
8633;DHT22;4354;49.832;10.746;2022-10-16T08:33:16;17.70;99.90
8633;DHT22;4354;49.832;10.746;2022-10-16T08:35:42;17.30;99.90
8633;DHT22;4354;49.832;10.746;2022-10-16T08:38:09;17.40;99.90
8633;DHT22;4354;49.832;10.746;2022-10-16T08:40:37;17.40;99.90
8633;DHT22;4354;49.832;10.746;2022-10-16T08:44:07;17.20;99.90
8633;DHT22;4354;49.832;10.746;2022-10-16T08:46:40;17.20;99.90
8633;DHT22;4354;49.832;10.746;2022-10-16T08:49:03;17.20;99.90
8633;DHT22;4354;49.832;10.746;2022-10-16T08:51:36;17.30;99.90
8633;DHT22;4354;49.832;10.746;2022-10-16T08:54:43;17.60;99.90
8633;DHT22;4354;49.832;10.746;2022-10-16T08:57:23;17.50;99.90
8633;DHT22;4354;49.832;10.746;2022-10-16T08:59:52;17.80;99.90
8633;DHT22;4354;49.832;10.746;2022-10-16T09:02:34;17.80;99.90
8633;DHT22;4354;49.832;10.746;2022-10-16T09:05:26;17.80;99.90
8633;DHT22;4354;49.832;10.746;2022-10-16T09:10:56;17.70;99.90
8633;DHT22;4354;49.832;10.746;2022-10-16T09:13:33;17.80;99.90
8633;DHT22;4354;49.832;10.746;2022-10-16T09:16:19;17.80;99.90
8633;DHT22;4354;49.832;10.746;2022-10-16T09:18:54;17.70;99.90
8633;DHT22;4354;49.832;10.746;2022-10-16T09:21:26;17.50;99.90
8633;DHT22;4354;49.832;10.746;2022-10-16T09:24:09;17.40;99.90
8633;DHT22;4354;49.832;10.746;2022-10-16T09:26:37;17.40;99.90
8633;DHT22;4354;49.832;10.746;2022-10-16T09:29:04;17.30;99.90
8633;DHT22;4354;49.832;10.746;2022-10-16T09:31:31;17.50;99.90
8633;DHT22;4354;49.832;10.746;2022-10-16T09:34:00;17.30;99.90
8633;DHT22;4354;49.832;10.746;2022-10-16T09:36:40;17.50;99.90
8633;DHT22;4354;49.832;10.746;2022-10-16T09:39:10;17.60;99.90
8633;DHT22;4354;49.832;10.746;2022-10-16T09:41:44;17.80;99.90
8633;DHT22;4354;49.832;10.746;2022-10-16T09:44:27;17.80;99.90
8633;DHT22;4354;49.832;10.746;2022-10-16T09:47:12;17.90;99.90
8633;DHT22;4354;49.832;10.746;2022-10-16T09:49:53;18.10;99.90
8633;DHT22;4354;49.832;10.746;2022-10-16T09:52:22;18.20;99.90
8633;DHT22;4354;49.832;10.746;2022-10-16T09:55:00;18.30;99.90
8633;DHT22;4354;49.832;10.746;2022-10-16T09:57:27;18.30;99.90
8633;DHT22;4354;49.832;10.746;2022-10-16T09:59:56;18.40;99.90
8633;DHT22;4354;49.832;10.746;2022-10-16T10:02:35;18.40;99.90
8633;DHT22;4354;49.832;10.746;2022-10-16T10:05:04;18.20;99.90
8633;DHT22;4354;49.832;10.746;2022-10-16T10:07:35;18.10;99.90
8633;DHT22;4354;49.832;10.746;2022-10-16T10:10:18;18.10;99.90
8633;DHT22;4354;49.832;10.746;2022-10-16T10:12:46;18.10;99.90
8633;DHT22;4354;49.832;10.746;2022-10-16T10:15:13;18.10;99.90
8633;DHT22;4354;49.832;10.746;2022-10-16T10:17:49;18.10;99.90
8633;DHT22;4354;49.832;10.746;2022-10-16T10:20:24;18.10;99.90
8633;DHT22;4354;49.832;10.746;2022-10-16T10:22:52;18.10;99.90
8633;DHT22;4354;49.832;10.746;2022-10-16T10:25:36;18.20;99.90
8633;DHT22;4354;49.832;10.746;2022-10-16T10:30:59;18.10;99.90
8633;DHT22;4354;49.832;10.746;2022-10-16T10:33:39;18.00;99.90
8633;DHT22;4354;49.832;10.746;2022-10-16T10:39:08;18.10;99.90
8633;DHT22;4354;49.832;10.746;2022-10-16T10:53:43;18.50;99.90
8633;DHT22;4354;49.832;10.746;2022-10-16T11:01:50;19.60;99.90
8633;DHT22;4354;49.832;10.746;2022-10-16T11:04:45;20.00;99.90
8633;DHT22;4354;49.832;10.746;2022-10-16T11:07:30;20.40;99.90
8633;DHT22;4354;49.832;10.746;2022-10-16T11:12:45;21.00;99.90
8633;DHT22;4354;49.832;10.746;2022-10-16T11:15:18;21.00;99.90
8633;DHT22;4354;49.832;10.746;2022-10-16T11:18:00;21.00;99.90
8633;DHT22;4354;49.832;10.746;2022-10-16T11:20:56;21.00;99.90
8633;DHT22;4354;49.832;10.746;2022-10-16T11:23:28;20.90;99.90
8633;DHT22;4354;49.832;10.746;2022-10-16T11:26:01;20.80;99.90
8633;DHT22;4354;49.832;10.746;2022-10-16T11:28:44;20.50;99.90
8633;DHT22;4354;49.832;10.746;2022-10-16T11:31:28;20.30;99.90
8633;DHT22;4354;49.832;10.746;2022-10-16T11:37:02;19.80;99.90
8633;DHT22;4354;49.832;10.746;2022-10-16T11:39:31;19.50;99.90
8633;DHT22;4354;49.832;10.746;2022-10-16T11:42:13;19.20;99.90
8633;DHT22;4354;49.832;10.746;2022-10-16T11:45:03;18.80;99.90
8633;DHT22;4354;49.832;10.746;2022-10-16T11:47:57;18.50;99.90
8633;DHT22;4354;49.832;10.746;2022-10-16T11:55:48;20.10;99.90
8633;DHT22;4354;49.832;10.746;2022-10-16T11:58:32;21.40;99.90
8633;DHT22;4354;49.832;10.746;2022-10-16T12:08:59;25.10;99.90
8633;DHT22;4354;49.832;10.746;2022-10-16T12:16:50;27.00;99.90
8633;DHT22;4354;49.832;10.746;2022-10-16T12:19:18;27.10;99.90
8633;DHT22;4354;49.832;10.746;2022-10-16T12:21:45;26.90;99.90
8633;DHT22;4354;49.832;10.746;2022-10-16T12:24:32;26.80;99.90
8633;DHT22;4354;49.832;10.746;2022-10-16T12:27:00;27.00;99.90
8633;DHT22;4354;49.832;10.746;2022-10-16T12:29:39;27.00;99.90
8633;DHT22;4354;49.832;10.746;2022-10-16T12:35:21;26.60;99.90
8633;DHT22;4354;49.832;10.746;2022-10-16T12:37:50;26.10;99.90
8633;DHT22;4354;49.832;10.746;2022-10-16T12:42:51;25.40;99.90
8633;DHT22;4354;49.832;10.746;2022-10-16T12:45:32;25.10;99.90
8633;DHT22;4354;49.832;10.746;2022-10-16T12:48:02;25.20;99.90
8633;DHT22;4354;49.832;10.746;2022-10-16T12:52:58;25.10;99.90
8633;DHT22;4354;49.832;10.746;2022-10-16T12:55:26;25.00;99.90
8633;DHT22;4354;49.832;10.746;2022-10-16T12:58:21;24.90;99.90
8633;DHT22;4354;49.832;10.746;2022-10-16T13:00:58;24.90;99.90
8633;DHT22;4354;49.832;10.746;2022-10-16T13:06:16;24.50;99.90
8633;DHT22;4354;49.832;10.746;2022-10-16T13:20:21;24.10;99.90
8633;DHT22;4354;49.832;10.746;2022-10-16T13:23:21;24.00;99.90
8633;DHT22;4354;49.832;10.746;2022-10-16T13:28:39;23.50;99.90
8633;DHT22;4354;49.832;10.746;2022-10-16T13:31:20;23.30;99.90
8633;DHT22;4354;49.832;10.746;2022-10-16T13:33:55;23.00;99.90
8633;DHT22;4354;49.832;10.746;2022-10-16T13:36:28;22.80;99.90
8633;DHT22;4354;49.832;10.746;2022-10-16T13:41:37;22.10;99.90
8633;DHT22;4354;49.832;10.746;2022-10-16T13:44:05;21.90;99.90
8633;DHT22;4354;49.832;10.746;2022-10-16T13:46:38;21.60;99.90
8633;DHT22;4354;49.832;10.746;2022-10-16T13:49:12;21.50;99.90
8633;DHT22;4354;49.832;10.746;2022-10-16T13:51:39;21.50;99.90
8633;DHT22;4354;49.832;10.746;2022-10-16T13:54:09;21.30;99.90
8633;DHT22;4354;49.832;10.746;2022-10-16T13:56:39;21.20;99.90
8633;DHT22;4354;49.832;10.746;2022-10-16T13:59:26;21.00;99.90
8633;DHT22;4354;49.832;10.746;2022-10-16T14:01:56;20.80;99.90
8633;DHT22;4354;49.832;10.746;2022-10-16T14:04:25;20.70;99.90
8633;DHT22;4354;49.832;10.746;2022-10-16T14:06:54;21.00;99.90
8633;DHT22;4354;49.832;10.746;2022-10-16T14:09:27;20.80;99.90
8633;DHT22;4354;49.832;10.746;2022-10-16T14:12:01;20.90;99.90
8633;DHT22;4354;49.832;10.746;2022-10-16T14:14:43;20.50;99.90
8633;DHT22;4354;49.832;10.746;2022-10-16T14:17:27;20.80;99.90
8633;DHT22;4354;49.832;10.746;2022-10-16T14:20:00;20.40;99.90
8633;DHT22;4354;49.832;10.746;2022-10-16T14:22:37;20.50;99.90
8633;DHT22;4354;49.832;10.746;2022-10-16T14:25:34;20.40;99.90
8633;DHT22;4354;49.832;10.746;2022-10-16T14:28:17;20.20;99.90
8633;DHT22;4354;49.832;10.746;2022-10-16T14:30:51;20.10;99.90
8633;DHT22;4354;49.832;10.746;2022-10-16T14:38:29;20.10;99.90
8633;DHT22;4354;49.832;10.746;2022-10-16T14:40:58;20.00;99.90
8633;DHT22;4354;49.832;10.746;2022-10-16T14:43:37;19.90;99.90
8633;DHT22;4354;49.832;10.746;2022-10-16T14:46:20;19.90;99.90
8633;DHT22;4354;49.832;10.746;2022-10-16T14:48:50;19.70;99.90
8633;DHT22;4354;49.832;10.746;2022-10-16T14:51:18;19.90;99.90
8633;DHT22;4354;49.832;10.746;2022-10-16T14:53:45;19.40;99.90
8633;DHT22;4354;49.832;10.746;2022-10-16T14:56:20;20.20;99.90
8633;DHT22;4354;49.832;10.746;2022-10-16T14:58:49;20.10;99.90
8633;DHT22;4354;49.832;10.746;2022-10-16T15:01:16;20.00;99.90
8633;DHT22;4354;49.832;10.746;2022-10-16T15:03:44;20.00;99.90
8633;DHT22;4354;49.832;10.746;2022-10-16T15:06:12;20.10;99.90
8633;DHT22;4354;49.832;10.746;2022-10-16T15:08:39;20.10;99.90
8633;DHT22;4354;49.832;10.746;2022-10-16T15:11:15;20.10;99.90
8633;DHT22;4354;49.832;10.746;2022-10-16T15:13:42;20.10;99.90
8633;DHT22;4354;49.832;10.746;2022-10-16T15:16:11;20.10;99.90
8633;DHT22;4354;49.832;10.746;2022-10-16T15:18:39;20.10;99.90
8633;DHT22;4354;49.832;10.746;2022-10-16T15:21:06;20.10;99.90
8633;DHT22;4354;49.832;10.746;2022-10-16T15:23:33;20.00;99.90
8633;DHT22;4354;49.832;10.746;2022-10-16T15:26:00;20.00;99.90
8633;DHT22;4354;49.832;10.746;2022-10-16T15:28:26;20.00;99.90
8633;DHT22;4354;49.832;10.746;2022-10-16T15:30:55;20.00;99.90
8633;DHT22;4354;49.832;10.746;2022-10-16T15:33:24;20.10;99.90
8633;DHT22;4354;49.832;10.746;2022-10-16T15:35:54;19.80;99.90
8633;DHT22;4354;49.832;10.746;2022-10-16T15:38:22;19.90;99.90
8633;DHT22;4354;49.832;10.746;2022-10-16T15:40:49;19.70;99.90
8633;DHT22;4354;49.832;10.746;2022-10-16T15:43:16;19.70;99.90
8633;DHT22;4354;49.832;10.746;2022-10-16T15:45:43;19.50;99.90
8633;DHT22;4354;49.832;10.746;2022-10-16T15:48:11;19.60;99.90
8633;DHT22;4354;49.832;10.746;2022-10-16T15:50:39;19.30;99.90
8633;DHT22;4354;49.832;10.746;2022-10-16T15:53:06;19.30;99.90
8633;DHT22;4354;49.832;10.746;2022-10-16T15:55:34;19.30;99.90
8633;DHT22;4354;49.832;10.746;2022-10-16T15:58:02;19.00;99.90
8633;DHT22;4354;49.832;10.746;2022-10-16T16:00:29;19.20;99.90
8633;DHT22;4354;49.832;10.746;2022-10-16T16:02:56;18.80;99.90
8633;DHT22;4354;49.832;10.746;2022-10-16T16:05:22;18.70;99.90
8633;DHT22;4354;49.832;10.746;2022-10-16T16:07:50;18.70;99.90
8633;DHT22;4354;49.832;10.746;2022-10-16T16:10:17;18.60;99.90
8633;DHT22;4354;49.832;10.746;2022-10-16T16:12:46;18.60;99.90
8633;DHT22;4354;49.832;10.746;2022-10-16T16:15:19;18.40;99.90
8633;DHT22;4354;49.832;10.746;2022-10-16T16:17:46;18.40;99.90
8633;DHT22;4354;49.832;10.746;2022-10-16T16:20:13;18.50;99.90
8633;DHT22;4354;49.832;10.746;2022-10-16T16:22:40;18.20;99.90
8633;DHT22;4354;49.832;10.746;2022-10-16T16:25:07;18.30;99.90
8633;DHT22;4354;49.832;10.746;2022-10-16T16:27:34;18.00;99.90
8633;DHT22;4354;49.832;10.746;2022-10-16T16:30:02;18.00;99.90
8633;DHT22;4354;49.832;10.746;2022-10-16T16:32:30;17.90;99.90
8633;DHT22;4354;49.832;10.746;2022-10-16T16:34:57;17.90;99.90
8633;DHT22;4354;49.832;10.746;2022-10-16T16:37:24;17.90;99.90
8633;DHT22;4354;49.832;10.746;2022-10-16T16:39:51;17.90;99.90
8633;DHT22;4354;49.832;10.746;2022-10-16T16:42:17;17.90;99.90
8633;DHT22;4354;49.832;10.746;2022-10-16T16:44:44;17.70;99.90
8633;DHT22;4354;49.832;10.746;2022-10-16T16:47:11;17.80;99.90
8633;DHT22;4354;49.832;10.746;2022-10-16T16:49:38;17.70;99.90
8633;DHT22;4354;49.832;10.746;2022-10-16T16:52:05;17.90;99.90
8633;DHT22;4354;49.832;10.746;2022-10-16T16:54:33;17.70;99.90
8633;DHT22;4354;49.832;10.746;2022-10-16T16:57:04;18.00;99.90
8633;DHT22;4354;49.832;10.746;2022-10-16T16:59:31;17.60;99.90
8633;DHT22;4354;49.832;10.746;2022-10-16T17:01:59;17.60;99.90
8633;DHT22;4354;49.832;10.746;2022-10-16T17:04:27;17.50;99.90
8633;DHT22;4354;49.832;10.746;2022-10-16T17:06:54;17.70;99.90
8633;DHT22;4354;49.832;10.746;2022-10-16T17:09:22;17.40;99.90
8633;DHT22;4354;49.832;10.746;2022-10-16T17:11:49;17.50;99.90
8633;DHT22;4354;49.832;10.746;2022-10-16T17:14:16;17.60;99.90
8633;DHT22;4354;49.832;10.746;2022-10-16T17:16:43;17.30;99.90
8633;DHT22;4354;49.832;10.746;2022-10-16T17:19:15;17.40;99.90
8633;DHT22;4354;49.832;10.746;2022-10-16T17:21:43;17.30;99.90
8633;DHT22;4354;49.832;10.746;2022-10-16T17:24:10;17.10;99.90
8633;DHT22;4354;49.832;10.746;2022-10-16T17:26:38;17.20;99.90
8633;DHT22;4354;49.832;10.746;2022-10-16T17:29:07;17.20;99.90
8633;DHT22;4354;49.832;10.746;2022-10-16T17:31:36;17.30;99.90
8633;DHT22;4354;49.832;10.746;2022-10-16T17:34:05;17.20;99.90
8633;DHT22;4354;49.832;10.746;2022-10-16T17:36:34;17.10;99.90
8633;DHT22;4354;49.832;10.746;2022-10-16T17:39:04;17.10;99.90
8633;DHT22;4354;49.832;10.746;2022-10-16T17:41:32;17.10;99.90
8633;DHT22;4354;49.832;10.746;2022-10-16T17:43:59;16.90;99.90